Time;durP1;ratioP1;P1;durP2;ratioP2;P2;SDS_P1;SDS_P2;PMS_P1;PMS_P2;Temp;Humidity;BMP_temperature;BMP_pressure;BME280_temperature;BME280_humidity;BME280_pressure;Samples;Min_cycle;Max_cycle;Signal;HPM_P1;HPM_P2
2023/09/26 00:00:55;;;;;;;10.60;3.43;;;;;;;24.65;54.08;99195.88;5033183;28;20209;-88
2023/09/26 00:03:21;;;;;;;15.00;4.03;;;;;;;24.65;53.97;99195.88;5016001;28;20182;-88
2023/09/26 00:05:48;;;;;;;15.77;5.17;;;;;;;24.67;53.96;99190.34;5015928;28;20202;-88
2023/09/26 00:08:14;;;;;;;11.60;3.47;;;;;;;24.65;53.70;99189.66;5016162;28;20694;-88
2023/09/26 00:10:39;;;;;;;6.80;2.97;;;;;;;24.58;54.08;99189.50;5015756;28;20186;-88
2023/09/26 00:13:05;;;;;;;11.33;4.17;;;;;;;24.50;54.58;99189.53;5015811;28;20636;-88
2023/09/26 00:15:30;;;;;;;14.00;3.30;;;;;;;24.47;54.64;99186.31;5015885;28;20178;-88
2023/09/26 00:17:57;;;;;;;10.07;3.37;;;;;;;24.42;55.12;99189.50;5033001;28;20620;-88
2023/09/26 00:20:31;;;;;;;10.87;3.30;;;;;;;24.38;54.99;99194.38;5015609;28;20603;-89
2023/09/26 00:22:57;;;;;;;9.27;2.90;;;;;;;24.34;55.33;99192.19;5033207;28;20154;-88
2023/09/26 00:25:24;;;;;;;9.57;3.30;;;;;;;24.41;54.98;99182.47;5033378;28;20563;-88
2023/09/26 00:27:50;;;;;;;12.17;3.30;;;;;;;24.49;54.29;99182.47;5015822;28;20256;-88
2023/09/26 00:30:16;;;;;;;6.50;2.97;;;;;;;24.56;53.67;99185.31;5032989;28;20693;-88
2023/09/26 00:32:45;;;;;;;9.10;3.20;;;;;;;24.52;53.72;99184.81;5015423;28;20197;-88
2023/09/26 00:35:12;;;;;;;9.57;3.47;;;;;;;24.52;53.55;99181.31;5033090;28;20267;-88
2023/09/26 00:37:41;;;;;;;8.50;2.83;;;;;;;24.50;53.94;99183.31;5032753;28;20655;-88
2023/09/26 00:40:12;;;;;;;11.70;3.13;;;;;;;24.43;53.87;99177.78;5033022;28;20231;-88
2023/09/26 00:42:38;;;;;;;13.27;3.27;;;;;;;24.46;53.86;99180.13;5015644;28;20193;-88
2023/09/26 00:45:04;;;;;;;14.73;3.40;;;;;;;24.50;53.45;99181.47;5033172;28;20652;-88
2023/09/26 00:47:34;;;;;;;15.47;3.67;;;;;;;24.51;53.32;99180.47;5016131;28;20198;-89
2023/09/26 00:50:03;;;;;;;13.90;3.40;;;;;;;24.44;53.73;99182.97;5015401;28;20197;-88
2023/09/26 00:52:29;;;;;;;14.07;3.83;;;;;;;24.38;53.90;99180.13;5015304;28;20178;-88
2023/09/26 00:54:55;;;;;;;10.07;3.70;;;;;;;24.36;53.76;99187.50;5032501;28;20324;-88
2023/09/26 00:57:21;;;;;;;6.70;2.93;;;;;;;24.29;54.29;99184.63;5018502;28;20182;-89
2023/09/26 00:59:47;;;;;;;8.37;3.73;;;;;;;24.34;54.18;99176.13;5036755;28;20182;-88
2023/09/26 01:02:13;;;;;;;9.50;2.93;;;;;;;24.32;54.02;99172.75;5019305;28;20608;-88
2023/09/26 01:04:39;;;;;;;6.03;2.60;;;;;;;24.28;54.85;99176.78;5036828;28;20612;-89
2023/09/26 01:07:05;;;;;;;11.00;3.53;;;;;;;24.27;54.99;99167.03;5019523;28;20554;-88
2023/09/26 01:09:30;;;;;;;12.63;3.13;;;;;;;24.32;54.39;99170.06;5036183;28;20624;-88
2023/09/26 01:11:56;;;;;;;9.43;3.17;;;;;;;24.40;54.16;99170.06;5036489;28;20643;-88
2023/09/26 01:14:22;;;;;;;11.43;3.13;;;;;;;24.47;53.81;99173.78;5018864;28;20252;-88
2023/09/26 01:16:54;;;;;;;14.37;4.27;;;;;;;24.49;53.50;99176.28;5018962;28;20612;-88
2023/09/26 01:19:20;;;;;;;13.73;2.87;;;;;;;24.44;53.47;99171.41;5036416;28;20159;-88
2023/09/26 01:21:45;;;;;;;13.80;3.63;;;;;;;24.39;53.68;99176.44;5035987;28;20277;-89
2023/09/26 01:24:11;;;;;;;13.30;3.10;;;;;;;24.39;53.41;99177.28;5019005;28;20273;-88
2023/09/26 01:26:36;;;;;;;11.17;2.97;;;;;;;24.44;52.76;99176.78;5036511;28;20609;-88
2023/09/26 01:29:03;;;;;;;13.43;3.83;;;;;;;24.47;52.11;99171.09;5018761;28;20612;-88
2023/09/26 01:31:28;;;;;;;9.70;2.60;;;;;;;24.44;51.74;99171.41;5015637;28;20198;-88
2023/09/26 01:33:54;;;;;;;10.67;2.83;;;;;;;24.46;51.71;99166.72;4999050;28;20183;-88
2023/09/26 01:36:21;;;;;;;14.00;4.27;;;;;;;24.49;51.47;99171.75;5016532;28;20232;-88
2023/09/26 01:38:46;;;;;;;9.33;2.97;;;;;;;24.54;50.96;99166.72;5028513;28;20217;-88
2023/09/26 01:41:12;;;;;;;11.07;3.10;;;;;;;24.55;50.54;99165.72;5036281;28;20664;-88
2023/09/26 01:43:38;;;;;;;18.73;3.70;;;;;;;24.51;50.76;99175.09;5035949;28;20182;-88
2023/09/26 01:46:04;;;;;;;9.30;2.97;;;;;;;24.50;50.50;99176.13;5035743;28;20280;-88
2023/09/26 01:48:29;;;;;;;8.53;2.93;;;;;;;24.47;50.78;99173.78;5035727;28;20628;-88
2023/09/26 01:50:54;;;;;;;11.23;3.47;;;;;;;24.54;50.43;99166.72;5018342;28;20197;-88
2023/09/26 01:53:20;;;;;;;11.93;3.03;;;;;;;24.56;50.64;99175.44;5035597;28;20210;-88
2023/09/26 01:55:45;;;;;;;10.87;2.47;;;;;;;24.55;50.81;99168.41;5035978;28;20178;-88
2023/09/26 01:58:11;;;;;;;14.10;3.20;;;;;;;24.59;50.64;99167.06;5018023;28;20194;-88
2023/09/26 02:00:36;;;;;;;14.03;3.73;;;;;;;24.62;50.66;99171.25;5018228;28;20197;-88
2023/09/26 02:03:02;;;;;;;14.00;3.00;;;;;;;24.62;50.12;99166.72;5035251;28;20187;-87
2023/09/26 02:05:27;;;;;;;6.13;2.50;;;;;;;24.59;49.96;99174.25;5035172;28;20606;-88
2023/09/26 02:07:53;;;;;;;10.80;3.20;;;;;;;24.59;49.87;99169.75;5035275;28;20170;-88
2023/09/26 02:10:19;;;;;;;9.13;3.10;;;;;;;24.55;49.95;99168.41;5035370;28;20178;-88
2023/09/26 02:12:46;;;;;;;8.43;2.80;;;;;;;24.56;49.83;99164.72;5035236;28;20674;-88
2023/09/26 02:15:12;;;;;;;9.40;2.57;;;;;;;24.55;50.03;99168.41;5017901;28;20265;-88
2023/09/26 02:17:39;;;;;;;10.70;2.57;;;;;;;24.51;49.65;99167.06;5017747;28;20201;-88
2023/09/26 02:20:12;;;;;;;10.60;3.27;;;;;;;24.52;49.94;99166.06;5035256;28;20206;-88
2023/09/26 02:22:41;;;;;;;10.87;3.43;;;;;;;24.52;49.95;99167.91;5011620;28;20179;-88
2023/09/26 02:25:09;;;;;;;6.80;3.30;;;;;;;24.50;50.42;99172.59;5015320;28;20199;-88
2023/09/26 02:27:34;;;;;;;12.33;4.77;;;;;;;24.49;50.54;99170.91;5015645;28;20189;-88
2023/09/26 02:30:00;;;;;;;11.37;3.80;;;;;;;24.44;50.54;99171.41;5027351;28;20183;-88
2023/09/26 02:32:25;;;;;;;10.77;3.07;;;;;;;24.41;50.57;99167.25;5017460;28;20217;-88
2023/09/26 02:34:50;;;;;;;8.30;3.57;;;;;;;24.34;51.10;99162.72;5035375;28;20257;-89
2023/09/26 02:37:16;;;;;;;8.20;3.60;;;;;;;24.36;51.01;99166.91;5017433;28;20265;-88
2023/09/26 02:39:41;;;;;;;7.47;2.83;;;;;;;24.39;50.59;99161.22;5015352;28;20680;-87
2023/09/26 02:42:06;;;;;;;11.83;3.63;;;;;;;24.38;51.05;99161.38;5015369;28;20210;-88
2023/09/26 02:44:32;;;;;;;9.20;3.30;;;;;;;24.36;50.73;99163.38;5000979;28;20186;-89
2023/09/26 02:46:57;;;;;;;6.83;3.30;;;;;;;24.38;50.83;99167.56;5034135;28;20289;-87
2023/09/26 02:49:23;;;;;;;11.00;3.40;;;;;;;24.33;50.80;99169.91;5034722;28;20517;-88
2023/09/26 02:51:48;;;;;;;15.30;2.93;;;;;;;24.24;51.33;99165.53;5017155;28;20248;-88
2023/09/26 02:54:14;;;;;;;10.43;3.40;;;;;;;24.26;51.65;99165.38;5016799;28;20204;-88
2023/09/26 02:56:39;;;;;;;6.60;3.07;;;;;;;24.20;51.61;99164.22;5035137;28;20174;-88
2023/09/26 02:59:04;;;;;;;8.17;3.03;;;;;;;24.10;52.12;99165.38;5034243;28;20189;-88
2023/09/26 03:01:30;;;;;;;11.80;3.47;;;;;;;24.16;51.74;99162.84;5034454;28;20330;-88
2023/09/26 03:03:55;;;;;;;9.50;3.20;;;;;;;24.19;51.87;99167.03;5034947;28;20186;-88
2023/09/26 03:06:21;;;;;;;6.37;2.70;;;;;;;24.19;51.39;99159.00;5034217;28;20199;-88
2023/09/26 03:08:46;;;;;;;14.20;3.53;;;;;;;24.18;51.84;99160.03;5034625;28;20255;-88
2023/09/26 03:11:12;;;;;;;6.60;2.93;;;;;;;24.17;51.85;99159.19;5000395;28;20182;-88
2023/09/26 03:13:37;;;;;;;8.37;3.83;;;;;;;24.10;51.73;99152.81;5034185;28;20720;-88
2023/09/26 03:16:04;;;;;;;12.57;3.00;;;;;;;24.12;51.80;99150.81;5034243;28;20177;-88
2023/09/26 03:18:30;;;;;;;13.53;3.00;;;;;;;24.14;51.67;99155.97;5033255;28;20266;-88
2023/09/26 03:20:56;;;;;;;7.70;3.23;;;;;;;24.16;51.53;99149.44;5034547;28;20209;-88
2023/09/26 03:23:22;;;;;;;10.03;2.83;;;;;;;24.17;51.79;99153.81;5016419;28;20646;-87
2023/09/26 03:25:48;;;;;;;8.07;2.77;;;;;;;24.13;51.43;99140.94;5034798;28;20199;-88
2023/09/26 03:28:13;;;;;;;12.57;3.70;;;;;;;24.17;51.10;99152.97;5033645;28;20213;-88
2023/09/26 03:30:43;;;;;;;13.50;4.10;;;;;;;24.15;51.29;99155.84;5033788;28;20624;-88
2023/09/26 03:33:10;;;;;;;12.43;3.17;;;;;;;24.15;50.83;99152.31;5016518;28;20208;-88
2023/09/26 03:35:35;;;;;;;10.47;3.47;;;;;;;24.12;50.86;99148.13;5033823;28;20182;-88
2023/09/26 03:38:01;;;;;;;10.03;3.53;;;;;;;24.10;50.36;99154.66;5008001;28;20251;-88
2023/09/26 03:40:26;;;;;;;8.43;2.97;;;;;;;24.10;50.56;99155.50;4996795;28;20648;-88
2023/09/26 03:42:52;;;;;;;7.00;2.70;;;;;;;24.11;50.56;99153.66;5014554;28;20257;-88
2023/09/26 03:45:18;;;;;;;10.40;3.17;;;;;;;24.11;50.56;99159.84;5024775;28;20268;-88
2023/09/26 03:47:43;;;;;;;14.07;3.83;;;;;;;24.12;50.27;99160.69;5016439;28;20630;-88
2023/09/26 03:50:09;;;;;;;8.87;2.97;;;;;;;24.14;50.50;99164.03;5016231;28;20619;-88
2023/09/26 03:52:34;;;;;;;10.80;3.33;;;;;;;24.12;50.47;99163.34;5033463;28;20198;-88
2023/09/26 03:55:00;;;;;;;13.47;3.50;;;;;;;24.10;50.09;99160.84;5016365;28;20544;-88
2023/09/26 03:57:26;;;;;;;7.07;3.03;;;;;;;24.08;50.54;99162.84;5015648;28;20206;-88
2023/09/26 03:59:52;;;;;;;12.57;3.17;;;;;;;24.09;50.26;99167.19;5033446;28;20185;-88
2023/09/26 04:02:17;;;;;;;13.07;2.73;;;;;;;24.09;50.01;99164.53;5033224;28;20213;-88
2023/09/26 04:04:42;;;;;;;7.03;2.63;;;;;;;24.05;49.98;99170.34;5033348;28;20178;-87
2023/09/26 04:07:08;;;;;;;12.50;2.80;;;;;;;24.01;49.85;99177.03;5015780;28;20620;-88
2023/09/26 04:09:34;;;;;;;9.17;2.83;;;;;;;24.02;49.78;99178.72;5033209;28;20178;-87
2023/09/26 04:12:01;;;;;;;5.53;2.43;;;;;;;23.98;49.67;99180.06;5033099;28;20170;-88
2023/09/26 04:14:27;;;;;;;8.83;2.37;;;;;;;23.90;50.15;99185.38;5032976;28;20243;-88
2023/09/26 04:16:53;;;;;;;12.90;3.37;;;;;;;23.80;50.09;99183.69;5033172;28;20276;-88
2023/09/26 04:19:18;;;;;;;7.77;2.40;;;;;;;23.85;50.23;99178.66;5015837;28;20182;-87
2023/09/26 04:21:44;;;;;;;10.33;2.80;;;;;;;23.84;50.24;99184.19;5033242;28;20189;-88
2023/09/26 04:24:09;;;;;;;7.43;2.23;;;;;;;23.88;50.17;99187.38;5033072;28;20264;-87
2023/09/26 04:26:35;;;;;;;16.37;3.20;;;;;;;23.93;49.52;99187.72;5033129;28;20301;-87
2023/09/26 04:29:00;;;;;;;7.80;2.80;;;;;;;23.91;49.98;99179.84;5016055;28;20229;-88
2023/09/26 04:31:26;;;;;;;7.30;2.73;;;;;;;23.87;49.80;99183.88;5037081;28;20175;-87
2023/09/26 04:33:51;;;;;;;11.03;2.50;;;;;;;23.97;49.39;99183.72;5019735;28;20182;-87
2023/09/26 04:36:17;;;;;;;6.83;3.00;;;;;;;23.97;48.98;99189.91;5037769;28;20174;-88
2023/09/26 04:38:43;;;;;;;8.43;2.77;;;;;;;24.00;49.10;99183.41;5019945;28;20742;-87
2023/09/26 04:41:08;;;;;;;8.87;2.23;;;;;;;23.98;49.03;99182.72;5036661;28;20186;-87
2023/09/26 04:43:34;;;;;;;7.63;3.03;;;;;;;23.84;49.31;99190.41;5019632;28;20672;-88
2023/09/26 04:46:00;;;;;;;6.83;2.70;;;;;;;23.80;49.89;99189.03;5037031;28;20205;-88
2023/09/26 04:48:25;;;;;;;7.33;2.50;;;;;;;23.90;49.55;99190.75;5036982;28;20182;-87
2023/09/26 04:50:51;;;;;;;7.53;2.47;;;;;;;23.97;49.25;99189.06;5036946;28;20267;-87
2023/09/26 04:53:16;;;;;;;6.57;2.27;;;;;;;24.04;48.85;99190.94;5019373;28;20628;-88
2023/09/26 04:55:42;;;;;;;8.67;2.70;;;;;;;24.05;48.87;99192.63;5036870;28;20162;-87
2023/09/26 04:58:08;;;;;;;10.60;2.80;;;;;;;24.16;48.67;99197.66;5036439;28;20265;-88
2023/09/26 05:00:34;;;;;;;6.37;2.70;;;;;;;24.32;48.19;99195.00;5036767;28;20179;-88
2023/09/26 05:03:01;;;;;;;13.43;2.30;;;;;;;24.36;48.23;99206.25;5018896;28;20182;-88
2023/09/26 05:05:27;;;;;;;15.20;3.30;;;;;;;24.43;48.25;99201.88;5003603;28;20217;-88
2023/09/26 05:07:53;;;;;;;6.97;2.77;;;;;;;24.50;47.91;99210.97;5016870;28;20638;-88
2023/09/26 05:10:19;;;;;;;9.03;2.73;;;;;;;24.48;48.19;99214.78;5012333;28;20190;-88
2023/09/26 05:12:44;;;;;;;12.03;2.47;;;;;;;24.53;48.10;99221.31;5036548;28;20265;-88
2023/09/26 05:15:12;;;;;;;15.80;3.13;;;;;;;24.66;47.85;99223.53;5036498;28;20174;-88
2023/09/26 05:17:49;;;;;;;10.40;2.70;;;;;;;24.78;47.83;99223.03;5016899;28;20643;-88
2023/09/26 05:20:15;;;;;;;6.73;2.70;;;;;;;;;;4999767;28;20189;-88
2023/09/26 05:22:42;;;;;;;9.37;2.73;;;;;;;25.13;46.75;99221.81;5019004;28;20175;-88
2023/09/26 05:25:09;;;;;;;13.63;2.60;;;;;;;25.18;46.55;99218.63;5019059;28;20672;-88
2023/09/26 05:27:36;;;;;;;7.77;2.60;;;;;;;25.17;46.82;99222.31;5036266;28;20170;-88
2023/09/26 05:30:02;;;;;;;14.67;3.63;;;;;;;25.27;46.37;99228.31;5035724;28;20718;-87
2023/09/26 05:32:28;;;;;;;9.33;2.97;;;;;;;25.34;46.58;99230.16;5035997;28;20183;-88
2023/09/26 05:34:53;;;;;;;5.10;2.10;;;;;;;25.45;46.36;99226.25;5036581;28;20534;-88
2023/09/26 05:37:18;;;;;;;7.07;2.67;;;;;;;25.70;46.01;99235.09;5018600;28;20551;-88
2023/09/26 05:39:44;;;;;;;11.17;2.67;;;;;;;25.84;45.55;99229.00;5036029;28;20659;-88
2023/09/26 05:42:10;;;;;;;8.83;2.60;;;;;;;25.92;45.35;99228.94;5035505;28;20174;-89
2023/09/26 05:44:37;;;;;;;12.27;2.40;;;;;;;25.91;45.69;99229.97;5035923;28;20186;-88
2023/09/26 05:47:03;;;;;;;11.50;2.70;;;;;;;25.91;45.74;99238.88;5018114;28;20202;-87
2023/09/26 05:49:29;;;;;;;12.10;2.93;;;;;;;26.03;45.68;99229.41;5035957;28;20207;-88
2023/09/26 05:51:55;;;;;;;8.37;2.93;;;;;;;26.21;45.44;99232.69;5018131;28;20526;-88
2023/09/26 05:54:20;;;;;;;12.47;3.20;;;;;;;26.52;45.83;99227.25;5018345;28;20213;-87
2023/09/26 05:56:45;;;;;;;6.23;2.20;;;;;;;27.02;43.65;99229.38;5035691;28;20175;-87
2023/09/26 05:59:11;;;;;;;7.93;2.80;;;;;;;27.74;42.63;99229.63;5017562;28;20189;-88
2023/09/26 06:01:36;;;;;;;9.03;2.67;;;;;;;28.57;40.36;99230.81;5035598;28;20178;-88
2023/09/26 06:04:02;;;;;;;11.03;2.20;;;;;;;29.63;39.07;99233.34;5017943;28;20706;-88
2023/09/26 06:06:27;;;;;;;5.07;2.10;;;;;;;30.55;37.68;99225.59;5035334;28;20696;-88
2023/09/26 06:08:53;;;;;;;13.93;3.03;;;;;;;30.94;36.64;99233.78;5035385;28;20208;-88
2023/09/26 06:11:18;;;;;;;5.72;1.65;;;;;;;31.23;36.26;99228.97;5018205;28;20189;-88
2023/09/26 06:13:44;;;;;;;10.60;2.42;;;;;;;31.51;35.63;99221.44;5017684;28;20256;-88
2023/09/26 06:16:10;;;;;;;13.07;2.55;;;;;;;32.18;35.11;99219.09;5035392;28;20232;-88
2023/09/26 06:18:35;;;;;;;15.00;2.60;;;;;;;32.65;33.79;99220.47;5035744;28;20189;-88
2023/09/26 06:21:08;;;;;;;7.35;2.38;;;;;;;32.77;33.39;99220.63;5017781;28;20186;-88
2023/09/26 06:23:33;;;;;;;7.05;2.38;;;;;;;32.52;34.45;99231.44;5017386;28;20186;-88
2023/09/26 06:26:00;;;;;;;10.65;2.28;;;;;;;32.09;34.19;99228.53;5017647;28;20328;-88
2023/09/26 06:28:26;;;;;;;6.55;2.10;;;;;;;31.73;35.46;99235.53;5017973;28;20525;-88
2023/09/26 06:30:51;;;;;;;6.88;2.30;;;;;;;31.89;35.19;99229.66;5017812;28;20273;-86
2023/09/26 06:33:17;;;;;;;7.28;2.50;;;;;;;31.93;35.37;99230.88;5035321;28;20659;-86
2023/09/26 06:35:42;;;;;;;12.35;2.78;;;;;;;31.74;35.15;99229.91;5034783;28;20197;-86
2023/09/26 06:38:08;;;;;;;13.73;2.28;;;;;;;31.40;35.94;99232.88;5017679;28;20335;-86
2023/09/26 06:40:33;;;;;;;11.25;2.70;;;;;;;30.86;36.69;99233.94;5017065;28;20190;-86
2023/09/26 06:43:00;;;;;;;5.50;2.08;;;;;;;30.33;37.53;99227.59;5035152;28;20256;-86
2023/09/26 06:45:30;;;;;;;6.93;2.42;;;;;;;30.07;38.63;99237.50;5017590;28;20293;-86
2023/09/26 06:47:55;;;;;;;9.88;2.78;;;;;;;29.86;38.81;99234.91;5034086;28;20182;-86
2023/09/26 06:50:21;;;;;;;8.18;3.55;;;;;;;29.64;39.83;99239.56;5034975;28;20196;-86
2023/09/26 06:52:47;;;;;;;11.15;3.30;;;;;;;29.50;40.17;99240.53;5018836;28;20345;-86
2023/09/26 06:55:13;;;;;;;9.00;2.65;;;;;;;29.25;40.66;99242.84;4997452;28;20167;-86
2023/09/26 06:57:39;;;;;;;11.85;2.28;;;;;;;29.12;42.19;99238.16;5022041;28;20624;-86
2023/09/26 07:00:05;;;;;;;5.65;2.08;;;;;;;28.90;41.52;99239.25;5035127;28;20240;-86
2023/09/26 07:02:31;;;;;;;8.55;2.30;;;;;;;28.84;41.94;99244.56;5034350;28;20185;-86
2023/09/26 07:04:57;;;;;;;7.97;2.63;;;;;;;28.72;41.88;99254.22;5017116;28;20276;-85
2023/09/26 07:07:23;;;;;;;7.82;1.85;;;;;;;28.47;43.54;99249.19;5034549;28;20257;-86
2023/09/26 07:09:49;;;;;;;12.93;3.00;;;;;;;28.54;42.78;99252.78;5016570;28;20533;-87
2023/09/26 07:12:17;;;;;;;12.65;2.20;;;;;;;28.57;42.95;99248.84;5017234;28;20209;-88
2023/09/26 07:14:43;;;;;;;7.28;2.92;;;;;;;28.28;43.40;99246.25;5033941;28;20182;-88
2023/09/26 07:17:09;;;;;;;5.57;1.77;;;;;;;28.32;44.31;99243.00;5034193;28;20538;-87
2023/09/26 07:19:34;;;;;;;5.47;1.83;;;;;;;28.51;43.72;99234.28;5034360;28;20187;-87
2023/09/26 07:22:00;;;;;;;12.95;3.67;;;;;;;28.70;43.22;99242.78;5033892;28;20556;-87
2023/09/26 07:24:26;;;;;;;11.55;3.00;;;;;;;28.90;43.42;99246.50;5033998;28;20210;-87
2023/09/26 07:26:51;;;;;;;4.97;2.05;;;;;;;29.16;42.37;99244.00;5033957;28;20210;-86
2023/09/26 07:29:17;;;;;;;9.98;2.60;;;;;;;29.35;42.10;99237.13;5017324;28;20209;-87
2023/09/26 07:31:43;;;;;;;9.15;2.80;;;;;;;29.55;42.16;99241.59;5023998;28;20193;-88
2023/09/26 07:34:09;;;;;;;7.80;2.42;;;;;;;29.44;41.39;99247.56;5016711;28;20189;-87
2023/09/26 07:36:35;;;;;;;11.10;2.35;;;;;;;29.37;41.45;99235.88;5033565;28;20174;-87
2023/09/26 07:39:00;;;;;;;11.88;3.38;;;;;;;29.27;42.36;99235.41;5033443;28;20189;-87
2023/09/26 07:41:26;;;;;;;9.23;2.10;;;;;;;29.12;41.97;99237.31;5033991;28;20193;-88
2023/09/26 07:43:51;;;;;;;7.30;2.10;;;;;;;28.98;42.20;99241.78;5016232;28;20632;-87
2023/09/26 07:46:17;;;;;;;8.32;2.60;;;;;;;28.99;41.96;99239.91;5015902;28;20202;-87
2023/09/26 07:48:42;;;;;;;6.90;2.50;;;;;;;28.94;42.82;99234.28;5033636;28;20239;-87
2023/09/26 07:51:09;;;;;;;9.02;2.60;;;;;;;28.77;43.33;99239.13;5015876;28;20194;-87
2023/09/26 07:53:34;;;;;;;5.88;2.42;;;;;;;28.74;42.93;99239.53;5033252;28;20241;-87
2023/09/26 07:56:00;;;;;;;9.35;2.97;;;;;;;28.47;43.41;99249.19;5033508;28;20171;-87
2023/09/26 07:58:26;;;;;;;13.48;3.13;;;;;;;28.37;44.02;99247.81;5033216;28;20190;-86
2023/09/26 08:00:58;;;;;;;13.07;3.72;;;;;;;28.17;44.97;99244.88;5032826;28;20190;-86
2023/09/26 08:03:24;;;;;;;9.70;3.65;;;;;;;28.39;44.70;99243.91;5033394;28;20182;-86
2023/09/26 08:05:57;;;;;;;5.28;2.50;;;;;;;28.53;43.86;99251.13;5032862;28;20202;-85
2023/09/26 08:08:23;;;;;;;16.00;2.78;;;;;;;28.45;44.21;99248.53;5033487;28;20166;-86
2023/09/26 08:10:48;;;;;;;8.43;2.63;;;;;;;28.61;44.44;99245.63;5033985;28;20236;-87
2023/09/26 08:13:15;;;;;;;5.40;2.72;;;;;;;28.85;43.90;99246.25;5015730;28;20194;-86
2023/09/26 08:15:40;;;;;;;10.38;2.67;;;;;;;28.67;43.59;99248.59;5033215;28;20181;-86
2023/09/26 08:18:06;;;;;;;14.90;2.78;;;;;;;28.94;43.56;99247.78;5032820;28;20190;-87
2023/09/26 08:20:31;;;;;;;9.00;2.30;;;;;;;29.30;42.41;99243.09;5033129;28;20252;-87
2023/09/26 08:22:57;;;;;;;8.35;2.42;;;;;;;29.65;42.65;99227.72;5015768;28;20571;-86
2023/09/26 08:25:23;;;;;;;13.25;2.53;;;;;;;29.64;42.34;99243.09;5033056;28;20213;-87
2023/09/26 08:27:48;;;;;;;6.20;2.25;;;;;;;29.87;42.76;99245.56;5033060;28;20178;-87
2023/09/26 08:30:14;;;;;;;4.68;1.98;;;;;;;30.07;42.10;99242.91;5021421;28;20202;-87
2023/09/26 08:32:40;;;;;;;11.50;3.15;;;;;;;30.11;41.48;99230.66;5027885;28;20186;-87
2023/09/26 08:35:07;;;;;;;9.88;2.67;;;;;;;30.22;41.50;99227.34;5032753;28;20197;-86
2023/09/26 08:37:38;;;;;;;9.32;2.30;;;;;;;30.30;40.39;99233.41;5015406;28;20325;-89
2023/09/26 08:40:04;;;;;;;11.27;2.50;;;;;;;30.25;41.06;99221.53;5032949;28;20231;-87
2023/09/26 08:42:31;;;;;;;7.95;2.03;;;;;;;29.99;41.84;99234.97;5032687;28;20178;-88
2023/09/26 08:44:58;;;;;;;8.18;2.15;;;;;;;29.98;41.11;99239.53;5032792;28;20186;-87
2023/09/26 08:47:24;;;;;;;7.03;2.15;;;;;;;29.87;41.23;99231.19;5032803;28;20190;-87
2023/09/26 08:49:57;;;;;;;15.20;3.17;;;;;;;29.96;41.67;99235.38;5032727;28;20178;-87
2023/09/26 08:52:24;;;;;;;11.48;2.88;;;;;;;30.03;41.65;99231.66;5032483;28;20634;-87
2023/09/26 08:54:49;;;;;;;10.20;2.10;;;;;;;29.97;41.72;99232.50;5032776;28;20542;-86
2023/09/26 08:57:22;;;;;;;6.22;1.95;;;;;;;30.29;41.31;99222.81;5033212;28;20294;-87
2023/09/26 08:59:48;;;;;;;6.70;2.13;;;;;;;30.45;39.35;99222.47;5032612;28;20200;-86
2023/09/26 09:02:14;;;;;;;10.68;2.72;;;;;;;30.19;39.73;99225.09;5032767;28;20201;-86
2023/09/26 09:04:43;;;;;;;10.60;2.03;;;;;;;30.16;38.65;99215.47;5032781;28;20178;-86
2023/09/26 09:07:10;;;;;;;8.35;1.88;;;;;;;30.10;38.92;99220.88;5032758;28;20660;-86
2023/09/26 09:09:36;;;;;;;11.45;2.65;;;;;;;29.63;39.83;99219.00;5032357;28;20182;-87
2023/09/26 09:12:02;;;;;;;8.88;2.10;;;;;;;29.62;40.37;99218.16;5032684;28;20257;-87
2023/09/26 09:14:32;;;;;;;9.68;2.22;;;;;;;29.98;39.63;99219.81;5015455;28;20205;-87
2023/09/26 09:16:58;;;;;;;7.57;2.22;;;;;;;30.33;38.83;99200.56;5033372;28;20182;-87
2023/09/26 09:19:45;;;;;;;6.10;2.20;;;;;;;30.56;38.74;99196.66;5036225;28;20182;-87
2023/09/26 09:22:21;;;;;;;7.60;2.40;;;;;;;30.71;38.46;99200.84;5036351;28;20276;-86
2023/09/26 09:24:56;;;;;;;5.70;2.47;;;;;;;30.42;38.58;99204.75;5036346;28;20623;-86
2023/09/26 09:27:35;;;;;;;9.55;2.53;;;;;;;30.15;38.57;99196.75;5035924;28;20190;-87
2023/09/26 09:30:07;;;;;;;4.35;2.00;;;;;;;30.28;38.56;99197.63;5036083;28;20267;-86
2023/09/26 09:32:36;;;;;;;3.55;2.05;;;;;;;30.18;39.23;99196.34;5018654;28;20209;-87
2023/09/26 09:35:02;;;;;;;8.02;2.17;;;;;;;30.01;39.69;99193.19;5036534;28;20175;-86
2023/09/26 09:37:28;;;;;;;7.05;2.25;;;;;;;30.01;39.34;99195.03;5029222;28;20179;-87
2023/09/26 09:39:54;;;;;;;10.95;2.40;;;;;;;30.15;39.67;99197.59;4998937;28;20183;-86
2023/09/26 09:42:20;;;;;;;5.20;2.65;;;;;;;30.24;39.86;99190.16;5016166;28;20621;-87
2023/09/26 09:44:45;;;;;;;9.52;2.47;;;;;;;30.40;40.28;99187.06;5011633;28;20190;-87
2023/09/26 09:47:15;;;;;;;7.22;2.25;;;;;;;30.64;39.71;99189.16;5018419;28;20203;-87
2023/09/26 09:49:44;;;;;;;11.63;3.35;;;;;;;30.64;39.65;99186.47;5018585;28;20182;-86
2023/09/26 09:52:11;;;;;;;6.22;2.63;;;;;;;30.75;39.07;99183.13;5036019;28;20174;-86
2023/09/26 09:54:39;;;;;;;7.20;2.47;;;;;;;30.76;39.58;99187.53;5035164;28;20248;-85
2023/09/26 09:57:10;;;;;;;5.82;2.42;;;;;;;30.82;39.85;99183.13;5018440;28;20174;-86
2023/09/26 09:59:37;;;;;;;11.25;2.80;;;;;;;30.74;39.36;99181.47;5035386;28;20241;-86
2023/09/26 10:02:04;;;;;;;7.32;2.63;;;;;;;30.83;39.28;99180.22;5017943;28;20183;-86
2023/09/26 10:04:31;;;;;;;5.93;2.20;;;;;;;30.90;39.36;99182.91;5017813;28;20244;-87
2023/09/26 10:06:59;;;;;;;8.10;2.55;;;;;;;30.73;39.42;99176.28;5034833;28;20325;-86
2023/09/26 10:09:25;;;;;;;7.82;2.58;;;;;;;30.78;39.97;99171.91;5035296;28;20174;-87
2023/09/26 10:11:53;;;;;;;6.95;1.95;;;;;;;30.94;39.48;99166.09;5035146;28;20201;-86
2023/09/26 10:14:24;;;;;;;10.02;2.67;;;;;;;30.61;39.68;99169.81;5017802;28;20178;-88
2023/09/26 10:16:50;;;;;;;6.40;2.38;;;;;;;30.37;40.84;99171.25;5035861;28;20659;-86
2023/09/26 10:19:16;;;;;;;7.90;3.08;;;;;;;30.71;39.73;99167.53;5035029;28;20190;-86
2023/09/26 10:21:42;;;;;;;6.45;3.20;;;;;;;30.93;39.92;99167.13;5034894;28;20171;-87
2023/09/26 10:24:08;;;;;;;12.02;3.42;;;;;;;31.03;39.51;99159.41;5035073;28;20216;-86
2023/09/26 10:26:36;;;;;;;9.13;2.50;;;;;;;31.06;39.31;99166.25;5035059;28;20680;-86
2023/09/26 10:29:08;;;;;;;4.45;2.30;;;;;;;31.27;38.31;99167.88;5017719;28;20581;-86
2023/09/26 10:31:34;;;;;;;6.18;2.35;;;;;;;31.33;38.79;99164.34;5017580;28;20174;-87
2023/09/26 10:33:59;;;;;;;7.43;2.58;;;;;;;31.49;38.34;99161.19;5017903;28;20181;-86
2023/09/26 10:36:25;;;;;;;7.18;2.70;;;;;;;31.48;38.85;99159.53;5017308;28;20181;-86
2023/09/26 10:38:59;;;;;;;4.65;2.45;;;;;;;31.40;38.59;99165.97;5035462;28;20175;-86
2023/09/26 10:41:26;;;;;;;10.65;2.38;;;;;;;31.33;38.87;99150.78;5033299;28;20180;-86
2023/09/26 10:43:53;;;;;;;6.45;1.75;;;;;;;31.48;39.97;99143.25;5015194;28;20547;-87
2023/09/26 10:46:18;;;;;;;8.98;2.28;;;;;;;31.43;37.70;99148.47;5020618;28;20311;-87
2023/09/26 10:48:44;;;;;;;5.57;2.03;;;;;;;31.22;38.49;99146.88;5034754;28;20171;-86
2023/09/26 10:51:10;;;;;;;6.88;2.08;;;;;;;31.00;38.46;99143.56;5034231;28;20212;-86
2023/09/26 10:53:36;;;;;;;7.03;2.28;;;;;;;31.28;39.57;99134.34;5034507;28;20186;-87
2023/09/26 10:56:03;;;;;;;6.13;2.42;;;;;;;31.46;38.59;99126.41;5034802;28;20194;-87
2023/09/26 10:58:35;;;;;;;8.52;2.13;;;;;;;31.70;37.64;99128.38;5034530;28;20200;-86
2023/09/26 11:01:00;;;;;;;5.07;1.80;;;;;;;31.81;35.60;99135.00;5034910;28;20183;-87
2023/09/26 11:03:28;;;;;;;7.47;2.22;;;;;;;31.56;36.54;99134.91;5034626;28;20610;-86
2023/09/26 11:05:55;;;;;;;3.97;1.60;;;;;;;31.26;37.61;99128.31;5016839;28;20202;-86
2023/09/26 11:08:22;;;;;;;5.60;2.05;;;;;;;31.63;37.62;99127.56;5034075;28;20178;-86
2023/09/26 11:10:50;;;;;;;17.15;2.63;;;;;;;31.93;37.16;99125.97;5033908;28;20189;-86
2023/09/26 11:13:17;;;;;;;5.00;1.92;;;;;;;31.95;37.37;99113.00;5034237;28;20213;-86
2023/09/26 11:15:46;;;;;;;6.20;2.55;;;;;;;31.97;37.09;99121.75;5034208;28;20178;-86
2023/09/26 11:18:12;;;;;;;6.75;2.60;;;;;;;32.03;37.20;99125.50;5034279;28;20189;-87
2023/09/26 11:20:39;;;;;;;4.70;1.90;;;;;;;32.11;36.84;99131.50;5034064;28;20217;-86
2023/09/26 11:23:05;;;;;;;13.85;3.38;;;;;;;32.04;36.86;99130.72;5034069;28;20178;-86
2023/09/26 11:25:31;;;;;;;4.93;2.15;;;;;;;31.85;36.64;99122.66;5033853;28;20558;-86
2023/09/26 11:27:57;;;;;;;8.88;2.38;;;;;;;31.67;36.57;99123.38;5034480;28;20189;-86